createdAt,value
2023-03-22T00:02:04.515Z,1.75
2023-03-22T00:04:33.840Z,1.90
2023-03-22T00:07:03.064Z,1.90
2023-03-22T00:09:32.946Z,2.20
2023-03-22T00:12:02.164Z,1.90
2023-03-22T00:14:31.480Z,2.27
2023-03-22T00:17:00.682Z,2.05
2023-03-22T00:19:30.323Z,2.42
2023-03-22T00:22:00.752Z,2.00
2023-03-22T00:24:30.315Z,2.02
2023-03-22T00:27:00.363Z,2.40
2023-03-22T00:29:29.860Z,2.27
2023-03-22T00:31:59.429Z,2.10
2023-03-22T00:34:33.424Z,2.35
2023-03-22T00:37:04.694Z,2.10
2023-03-22T00:39:34.277Z,2.12
2023-03-22T00:42:06.172Z,2.70
2023-03-22T00:44:35.839Z,2.62
2023-03-22T00:47:05.331Z,2.10
2023-03-22T00:49:36.497Z,2.20
2023-03-22T00:52:06.546Z,2.70
2023-03-22T00:54:35.957Z,2.30
2023-03-22T00:57:05.703Z,2.20
2023-03-22T00:59:36.760Z,2.67
2023-03-22T01:02:06.766Z,2.80
2023-03-22T01:04:36.170Z,3.22
2023-03-22T01:07:05.857Z,2.60
2023-03-22T01:09:36.798Z,2.62
2023-03-22T01:12:06.165Z,2.87
2023-03-22T01:14:35.430Z,2.83
2023-03-22T01:17:04.865Z,2.90
2023-03-22T01:19:36.197Z,2.98
2023-03-22T01:22:07.160Z,3.00
2023-03-22T01:24:37.299Z,3.10
2023-03-22T01:27:07.168Z,3.25
2023-03-22T01:29:36.796Z,2.85
2023-03-22T01:32:06.797Z,3.87
2023-03-22T01:34:36.516Z,3.90
2023-03-22T01:37:06.438Z,3.67
2023-03-22T01:39:36.411Z,4.45
2023-03-22T01:42:06.995Z,4.50
2023-03-22T01:44:39.045Z,4.95
2023-03-22T01:47:11.173Z,5.40
2023-03-22T01:49:41.491Z,5.17
2023-03-22T01:52:13.172Z,6.08
2023-03-22T01:54:48.977Z,6.10
2023-03-22T01:57:33.541Z,7.80
2023-03-22T02:00:04.920Z,7.67
2023-03-22T02:02:46.126Z,9.00
2023-03-22T02:05:18.062Z,10.10
2023-03-22T02:07:47.798Z,10.93
2023-03-22T02:10:20.496Z,11.25
2023-03-22T02:12:57.878Z,10.78
2023-03-22T02:15:47.350Z,10.90
2023-03-22T02:18:45.783Z,11.75
2023-03-22T02:21:33.424Z,12.13
2023-03-22T02:24:14.147Z,11.48
2023-03-22T02:27:12.480Z,12.20
2023-03-22T02:29:48.316Z,12.23
2023-03-22T02:32:37.530Z,11.45
2023-03-22T02:35:36.496Z,11.53
2023-03-22T02:38:14.799Z,10.58
2023-03-22T02:41:13.901Z,11.78
2023-03-22T02:44:09.116Z,11.45
2023-03-22T02:47:04.265Z,11.48
2023-03-22T02:49:47.560Z,11.88
2023-03-22T02:55:11.436Z,11.05
2023-03-22T02:57:58.366Z,10.98
2023-03-22T03:00:28.107Z,11.85
2023-03-22T03:03:02.037Z,11.12
2023-03-22T03:08:01.815Z,10.70
2023-03-22T03:10:32.705Z,10.45
2023-03-22T03:13:02.304Z,9.80
2023-03-22T03:15:31.704Z,10.60
2023-03-22T03:18:16.710Z,10.95
2023-03-22T03:21:05.658Z,9.85
2023-03-22T03:23:54.220Z,10.53
2023-03-22T03:26:53.820Z,9.93
2023-03-22T03:29:41.588Z,9.60
2023-03-22T03:32:19.944Z,10.35
2023-03-22T03:34:53.014Z,10.10
2023-03-22T03:37:26.279Z,10.13
2023-03-22T03:40:01.722Z,10.45
2023-03-22T03:42:31.969Z,9.93
2023-03-22T03:45:01.365Z,9.75
2023-03-22T03:47:33.552Z,9.88
2023-03-22T03:50:04.317Z,9.98
2023-03-22T03:52:33.950Z,9.55
2023-03-22T03:55:03.153Z,9.53
2023-03-22T03:57:34.521Z,9.93
2023-03-22T04:00:04.295Z,8.95
2023-03-22T04:02:45.568Z,8.88
2023-03-22T04:05:16.906Z,9.00
2023-03-22T04:07:46.770Z,9.58
2023-03-22T04:10:16.658Z,9.28
2023-03-22T04:12:45.939Z,8.18
2023-03-22T04:15:17.116Z,8.63
2023-03-22T04:17:48.164Z,8.55
2023-03-22T04:20:17.793Z,8.48
2023-03-22T04:22:49.087Z,8.35
2023-03-22T04:25:20.755Z,8.00
2023-03-22T04:27:52.124Z,7.83
2023-03-22T04:30:22.937Z,8.68
2023-03-22T04:33:05.799Z,7.78
2023-03-22T04:35:36.992Z,8.30
2023-03-22T04:38:07.908Z,7.35
2023-03-22T04:40:38.969Z,7.47
2023-03-22T04:43:14.003Z,7.45
2023-03-22T04:45:48.894Z,7.12
2023-03-22T04:48:21.677Z,7.03
2023-03-22T04:50:53.420Z,8.15
2023-03-22T04:55:59.412Z,7.03
2023-03-22T04:58:30.438Z,6.97
2023-03-22T05:00:59.747Z,7.00
2023-03-22T05:03:29.183Z,6.08
2023-03-22T05:06:01.016Z,7.15
2023-03-22T05:08:32.491Z,6.85
2023-03-22T05:11:11.731Z,6.95
2023-03-22T05:13:42.259Z,6.25
2023-03-22T05:16:11.797Z,6.03
2023-03-22T05:18:44.532Z,5.97
2023-03-22T05:21:16.468Z,5.95
2023-03-22T05:23:47.788Z,6.60
2023-03-22T05:26:19.572Z,5.65
2023-03-22T05:28:48.993Z,5.65
2023-03-22T05:31:21.763Z,6.12
2023-03-22T05:33:53.480Z,5.15
2023-03-22T05:36:24.245Z,5.60
2023-03-22T05:38:58.622Z,5.42
2023-03-22T05:41:28.031Z,4.87
2023-03-22T05:43:57.207Z,4.85
2023-03-22T05:46:26.664Z,4.58
2023-03-22T05:49:16.092Z,4.72
2023-03-22T05:51:45.815Z,4.55
2023-03-22T05:54:16.016Z,4.10
2023-03-22T05:56:47.793Z,4.65
2023-03-22T05:59:17.126Z,4.40
2023-03-22T06:01:46.932Z,4.03
2023-03-22T06:04:18.861Z,3.98
2023-03-22T06:06:50.538Z,4.30
2023-03-22T06:09:24.258Z,4.00
2023-03-22T06:11:53.868Z,3.85
2023-03-22T06:14:24.844Z,3.52
2023-03-22T06:16:55.862Z,3.47
2023-03-22T06:19:26.987Z,3.75
2023-03-22T06:21:56.859Z,3.08
2023-03-22T06:24:27.778Z,3.30
2023-03-22T06:26:57.328Z,3.35
2023-03-22T06:29:27.163Z,3.00
2023-03-22T06:31:58.228Z,3.00
2023-03-22T06:34:27.649Z,3.02
2023-03-22T06:36:57.069Z,2.83
2023-03-22T06:39:28.487Z,2.65
2023-03-22T06:41:57.763Z,2.72
2023-03-22T06:44:27.531Z,3.10
2023-03-22T06:47:01.668Z,3.00
2023-03-22T06:49:35.888Z,2.70
2023-03-22T06:52:05.765Z,2.52
2023-03-22T06:54:36.022Z,2.70
2023-03-22T06:57:05.547Z,2.58
2023-03-22T06:59:36.083Z,2.35
2023-03-22T07:02:06.981Z,2.50
2023-03-22T07:04:36.848Z,2.42
2023-03-22T07:07:07.015Z,2.90
2023-03-22T07:09:36.950Z,2.50
2023-03-22T07:12:09.487Z,2.62
2023-03-22T07:14:39.611Z,2.77
2023-03-22T07:17:14.521Z,2.47
2023-03-22T07:19:44.974Z,3.00
2023-03-22T07:22:15.515Z,2.77
2023-03-22T07:24:56.271Z,2.72
2023-03-22T07:27:17.634Z,2.35
2023-03-22T07:29:47.633Z,2.85
2023-03-22T07:32:16.986Z,2.83
2023-03-22T07:34:48.333Z,2.60
2023-03-22T07:37:19.252Z,2.70
2023-03-22T07:39:48.882Z,2.72
2023-03-22T07:42:18.189Z,2.75
2023-03-22T07:44:55.141Z,2.90
2023-03-22T07:47:39.895Z,2.75
2023-03-22T07:50:12.966Z,3.33
2023-03-22T07:52:44.443Z,3.77
2023-03-22T07:55:15.420Z,3.42
2023-03-22T07:57:44.887Z,2.90
2023-03-22T08:00:17.130Z,3.40
2023-03-22T08:02:48.088Z,3.47
2023-03-22T08:05:19.310Z,3.50
2023-03-22T08:07:51.593Z,3.08
2023-03-22T08:10:20.977Z,3.17
2023-03-22T08:12:50.938Z,3.62
2023-03-22T08:15:22.674Z,3.62
2023-03-22T08:17:53.129Z,3.67
2023-03-22T08:20:27.489Z,3.20
2023-03-22T08:22:58.592Z,3.12
2023-03-22T08:25:47.808Z,3.25
2023-03-22T08:28:17.764Z,3.20
2023-03-22T08:30:48.729Z,2.87
2023-03-22T08:33:19.891Z,3.05
2023-03-22T08:35:49.397Z,3.00
2023-03-22T08:38:20.008Z,2.98
2023-03-22T08:40:50.969Z,2.50
2023-03-22T08:43:21.963Z,2.83
2023-03-22T08:45:52.784Z,3.00
2023-03-22T08:48:22.598Z,3.20
2023-03-22T08:51:09.006Z,2.90
2023-03-22T08:53:42.760Z,2.83
2023-03-22T08:56:27.267Z,3.00
2023-03-22T08:58:58.193Z,3.47
2023-03-22T09:01:46.113Z,3.60
2023-03-22T09:04:15.669Z,2.90
2023-03-22T09:06:46.983Z,3.20
2023-03-22T09:09:16.587Z,2.85
2023-03-22T09:11:47.685Z,3.52
2023-03-22T09:14:16.974Z,3.50
2023-03-22T09:16:48.739Z,3.37
2023-03-22T09:19:18.511Z,3.72
2023-03-22T09:21:48.544Z,3.20
2023-03-22T09:24:19.509Z,3.10
2023-03-22T09:26:51.329Z,3.47
2023-03-22T09:29:21.177Z,3.00
2023-03-22T09:31:51.136Z,3.42
2023-03-22T09:34:22.272Z,3.20
2023-03-22T09:36:53.168Z,2.52
2023-03-22T09:41:57.238Z,2.80
2023-03-22T09:44:29.545Z,2.90
2023-03-22T09:47:01.210Z,3.33
2023-03-22T09:49:47.201Z,3.62
2023-03-22T09:52:10.355Z,3.58
2023-03-22T09:57:32.599Z,2.98
2023-03-22T10:00:21.045Z,3.67
2023-03-22T10:03:11.006Z,3.30
2023-03-22T10:05:45.829Z,3.60
2023-03-22T10:08:42.180Z,3.50
2023-03-22T10:11:20.353Z,3.45
2023-03-22T10:13:58.806Z,3.77
2023-03-22T10:16:32.384Z,3.60
2023-03-22T10:19:07.347Z,3.55
2023-03-22T10:21:37.374Z,3.27
2023-03-22T10:24:16.289Z,3.92
2023-03-22T10:26:49.542Z,3.40
2023-03-22T10:29:37.297Z,3.17
2023-03-22T10:32:28.098Z,3.60
2023-03-22T10:34:57.950Z,3.22
2023-03-22T10:37:32.633Z,3.05
2023-03-22T10:40:08.106Z,3.02
2023-03-22T10:42:38.784Z,3.37
2023-03-22T10:45:11.590Z,3.60
2023-03-22T10:47:46.662Z,3.58
2023-03-22T10:50:28.743Z,3.62
2023-03-22T10:53:04.431Z,3.47
2023-03-22T10:55:33.747Z,3.60
2023-03-22T10:58:20.591Z,3.50
2023-03-22T11:00:55.295Z,3.60
2023-03-22T11:03:34.027Z,3.27
2023-03-22T11:06:12.422Z,3.45
2023-03-22T11:08:50.035Z,3.62
2023-03-22T11:11:31.454Z,3.12
2023-03-22T11:14:10.310Z,3.52
2023-03-22T11:16:59.912Z,3.50
2023-03-22T11:19:35.593Z,3.83
2023-03-22T11:22:24.876Z,2.87
2023-03-22T11:24:56.825Z,3.08
2023-03-22T11:27:33.172Z,3.47
2023-03-22T11:30:11.332Z,3.17
2023-03-22T11:32:41.722Z,3.10
2023-03-22T11:35:20.736Z,3.20
2023-03-22T11:37:52.748Z,3.10
2023-03-22T11:40:31.357Z,3.10
2023-03-22T11:43:06.358Z,3.17
2023-03-22T11:45:37.771Z,3.25
2023-03-22T11:48:10.599Z,2.98
2023-03-22T11:50:41.821Z,3.12
2023-03-22T11:53:19.617Z,3.10
2023-03-22T11:55:51.646Z,3.20
2023-03-22T11:58:32.372Z,3.35
2023-03-22T12:01:03.393Z,3.40
2023-03-22T12:03:38.869Z,3.55
2023-03-22T12:06:09.929Z,2.95
2023-03-22T12:09:00.358Z,3.25
2023-03-22T12:11:38.762Z,3.22
2023-03-22T12:14:13.680Z,3.20
2023-03-22T12:16:55.384Z,3.55
2023-03-22T12:19:30.688Z,3.75
2023-03-22T12:22:00.961Z,4.00
2023-03-22T12:24:32.630Z,3.80
2023-03-22T12:27:07.913Z,4.43
2023-03-22T12:29:39.662Z,4.75
2023-03-22T12:32:15.707Z,4.40
2023-03-22T12:34:48.719Z,4.97
2023-03-22T12:37:23.630Z,5.20
2023-03-22T12:40:11.363Z,4.72
2023-03-22T12:43:01.918Z,4.80
2023-03-22T12:45:33.218Z,4.95
2023-03-22T12:48:09.044Z,5.60
2023-03-22T12:50:41.984Z,5.08
2023-03-22T12:53:19.445Z,5.50
2023-03-22T12:55:49.684Z,4.92
2023-03-22T12:58:21.967Z,6.42
2023-03-22T13:00:58.298Z,5.12
2023-03-22T13:03:31.268Z,4.97
2023-03-22T13:06:03.728Z,6.08
2023-03-22T13:09:04.729Z,4.87
2023-03-22T13:11:34.039Z,5.33
2023-03-22T13:14:03.898Z,5.50
2023-03-22T13:16:54.068Z,5.50
2023-03-22T13:19:29.829Z,5.20
2023-03-22T13:22:26.398Z,6.25
2023-03-22T13:25:01.125Z,6.05
2023-03-22T13:28:06.645Z,5.80
2023-03-22T13:30:50.715Z,6.20
2023-03-22T13:33:23.941Z,6.67
2023-03-22T13:35:57.300Z,7.50
2023-03-22T13:38:29.761Z,5.60
2023-03-22T13:41:16.643Z,5.40
2023-03-22T13:43:54.845Z,5.58
2023-03-22T13:46:27.494Z,7.50
2023-03-22T13:49:05.485Z,6.62
2023-03-22T13:51:35.355Z,6.58
2023-03-22T13:54:17.156Z,6.75
2023-03-22T13:56:56.477Z,7.47
2023-03-22T13:59:30.602Z,7.08
2023-03-22T14:02:23.600Z,7.37
2023-03-22T14:05:07.720Z,7.50
2023-03-22T14:08:19.998Z,8.28
2023-03-22T14:11:12.228Z,7.83
2023-03-22T14:13:52.430Z,7.50
2023-03-22T14:16:51.754Z,7.55
2023-03-22T14:19:29.472Z,7.17
